Time;durP1;ratioP1;P1;durP2;ratioP2;P2;SDS_P1;SDS_P2;PMS_P1;PMS_P2;Temp;Humidity;BMP_temperature;BMP_pressure;BME280_temperature;BME280_humidity;BME280_pressure;Samples;Min_cycle;Max_cycle;Signal;HPM_P1;HPM_P2
2022/09/24 00:00:41;;;;;;;;;10.67;10.67;;;;;17.08;58.55;100650.16;5075109;27;45433;-54
2022/09/24 00:03:06;;;;;;;;;18.00;13.33;;;;;17.13;59.00;100651.59;5091825;27;46587;-54
2022/09/24 00:05:39;;;;;;;;;19.33;13.33;;;;;17.12;59.14;100653.44;5087620;27;45500;-55
2022/09/24 00:08:08;;;;;;;;;15.67;13.67;;;;;17.09;59.16;100651.88;5096727;27;45373;-54
2022/09/24 00:10:41;;;;;;;;;13.33;12.33;;;;;17.15;57.71;100661.25;5095200;27;45650;-55
2022/09/24 00:13:11;;;;;;;;;16.67;13.00;;;;;17.13;58.10;100649.78;5096463;27;45465;-52
2022/09/24 00:15:42;;;;;;;;;20.00;13.33;;;;;17.16;57.59;100652.19;5080922;27;45547;-54
2022/09/24 00:18:09;;;;;;;;;11.67;11.67;;;;;17.12;58.15;100655.28;5076041;27;45370;-52
2022/09/24 00:20:35;;;;;;;;;11.00;10.67;;;;;17.09;58.28;100654.56;5082390;27;45298;-52
2022/09/24 00:23:04;;;;;;;;;12.00;11.00;;;;;17.07;58.05;100647.59;5091193;27;46183;-57
2022/09/24 00:28:14;;;;;;;;;12.67;11.00;;;;;16.96;58.44;100640.41;5076433;28;45392;-54
2022/09/24 00:30:42;;;;;;;;;18.33;16.67;;;;;16.95;58.82;100635.16;5077065;28;45389;-56
2022/09/24 00:33:08;;;;;;;;;13.00;12.33;;;;;17.00;58.17;100646.38;5078004;27;46114;-52
2022/09/24 00:35:36;;;;;;;;;13.33;12.33;;;;;16.96;58.81;100634.19;5079068;27;45591;-54
2022/09/24 00:38:02;;;;;;;;;14.33;14.00;;;;;17.01;58.70;100638.19;5092676;27;45227;-54
2022/09/24 00:40:30;;;;;;;;;16.00;14.33;;;;;17.02;58.15;100639.91;5086164;27;45323;-54
2022/09/24 00:42:55;;;;;;;;;13.00;11.67;;;;;17.04;58.10;100648.69;5093243;27;48430;-52
2022/09/24 00:45:22;;;;;;;;;16.67;13.33;;;;;17.05;58.29;100647.69;5078687;27;45408;-53
2022/09/24 00:47:48;;;;;;;;;15.67;12.00;;;;;17.03;58.25;100638.91;5078843;28;45476;-54
2022/09/24 00:50:16;;;;;;;;;12.33;12.33;;;;;17.03;58.94;100641.59;5079087;27;45494;-53
2022/09/24 00:52:50;;;;;;;;;12.67;8.67;;;;;16.99;58.50;100634.78;5078677;28;45395;-54
2022/09/24 00:55:18;;;;;;;;;13.67;13.67;;;;;17.00;58.51;100631.13;5086310;27;45453;-53
2022/09/24 00:57:47;;;;;;;;;9.00;9.00;;;;;17.07;59.38;100642.22;5079218;27;46135;-52
2022/09/24 01:00:14;;;;;;;;;13.00;13.00;;;;;16.97;59.01;100633.22;5078725;27;45405;-54
2022/09/24 01:02:44;;;;;;;;;10.00;10.00;;;;;16.94;59.42;100634.31;5078655;27;45276;-54
2022/09/24 01:05:09;;;;;;;;;13.33;11.33;;;;;16.89;59.12;100636.50;5078728;27;45297;-52
2022/09/24 01:07:35;;;;;;;;;15.00;13.33;;;;;16.84;59.90;100624.44;5078729;27;45415;-53
2022/09/24 01:10:01;;;;;;;;;12.67;12.67;;;;;16.88;59.20;100637.50;5077856;27;45503;-53
2022/09/24 01:12:48;;;;;;;;;13.33;11.00;;;;;16.89;58.57;100628.44;5082037;27;46642;-53
2022/09/24 01:15:23;;;;;;;;;13.33;13.00;;;;;16.92;59.16;100630.03;5091343;27;45631;-54
2022/09/24 01:17:54;;;;;;;;;12.67;12.33;;;;;16.91;61.74;100631.00;5058110;28;45470;-54
2022/09/24 01:20:31;;;;;;;;;16.33;14.33;;;;;16.90;60.75;100632.00;5062009;28;45535;-53
2022/09/24 01:23:12;;;;;;;;;11.67;11.67;;;;;16.89;59.97;100636.50;5076877;27;46412;-53
2022/09/24 01:26:10;;;;;;;;;9.33;9.33;;;;;16.86;60.08;100630.53;5075631;27;45512;-52
2022/09/24 01:28:54;;;;;;;;;14.00;11.33;;;;;16.83;59.59;100626.28;5077154;27;45340;-50
2022/09/24 01:31:35;;;;;;;;;12.67;12.67;;;;;16.79;60.31;100627.50;5078781;27;45667;-53
2022/09/24 01:34:04;;;;;;;;;16.00;14.67;;;;;16.81;60.60;100620.19;5076716;27;46173;-53
2022/09/24 01:36:34;;;;;;;;;14.33;11.33;;;;;16.76;60.50;100617.00;5077599;28;45335;-55
2022/09/24 01:39:02;;;;;;;;;13.33;11.67;;;;;16.76;60.76;100617.00;5093398;27;45237;-53
2022/09/24 01:41:28;;;;;;;;;13.67;13.00;;;;;16.74;61.00;100618.97;5076264;27;45591;-52
2022/09/24 01:43:53;;;;;;;;;15.33;12.33;;;;;16.74;61.32;100616.28;5077692;27;45472;-54
2022/09/24 01:46:21;;;;;;;;;15.00;12.33;;;;;16.68;61.10;100614.09;5079813;27;45486;-52
2022/09/24 01:48:47;;;;;;;;;13.33;12.00;;;;;16.63;61.20;100610.88;5098551;27;45475;-53
2022/09/24 01:51:36;;;;;;;;;13.67;12.67;;;;;16.59;61.19;100614.81;5098727;27;45314;-54
2022/09/24 01:54:04;;;;;;;;;12.67;11.67;;;;;16.53;61.67;100613.47;5114393;27;45570;-54
2022/09/24 01:56:37;;;;;;;;;10.67;10.67;;;;;16.47;62.18;100609.44;5076383;27;45623;-53
2022/09/24 01:59:18;;;;;;;;;10.00;10.00;;;;;16.42;62.42;100610.81;5077821;27;45212;-54
2022/09/24 02:01:57;;;;;;;;;11.00;10.33;;;;;16.34;62.89;100599.81;5076964;27;45637;-53
2022/09/24 02:04:27;;;;;;;;;12.00;12.00;;;;;16.26;62.29;100592.38;5097734;27;47099;-54
2022/09/24 02:07:00;;;;;;;;;12.00;12.00;;;;;16.25;62.79;100590.66;5097705;27;45389;-52
2022/09/24 02:09:29;;;;;;;;;12.67;10.00;;;;;16.25;63.12;100593.34;5081948;27;45358;-54
2022/09/24 02:11:57;;;;;;;;;12.33;12.33;;;;;16.24;64.27;100583.59;5076189;27;45269;-55
2022/09/24 02:14:23;;;;;;;;;12.33;12.33;;;;;16.22;64.47;100590.91;5092829;27;46622;-53
2022/09/24 02:16:51;;;;;;;;;10.33;10.33;;;;;16.17;64.35;100582.38;5077106;28;45401;-54
2022/09/24 02:19:22;;;;;;;;;19.67;12.67;;;;;16.17;64.79;100582.38;5077186;27;45468;-53
2022/09/24 02:21:49;;;;;;;;;10.67;9.00;;;;;15.99;64.75;100557.00;5075138;27;45608;-51
2022/09/24 02:24:23;;;;;;;;;15.67;13.67;;;;;16.06;65.42;100568.97;5092829;27;47728;-54
2022/09/24 02:26:49;;;;;;;;;11.33;11.33;;;;;16.06;66.03;100572.50;5076491;28;45495;-54
2022/09/24 02:29:17;;;;;;;;;13.00;13.00;;;;;16.05;65.52;100578.00;5077512;27;45497;-51
2022/09/24 02:31:47;;;;;;;;;15.33;14.00;;;;;15.93;65.93;100561.03;5077566;27;45462;-53
2022/09/24 02:34:22;;;;;;;;;13.33;13.33;;;;;15.99;65.90;100568.59;5077171;27;45332;-52
2022/09/24 02:36:57;;;;;;;;;13.00;13.00;;;;;16.00;65.77;100569.44;5088926;27;45515;-55
2022/09/24 02:39:23;;;;;;;;;12.33;12.33;;;;;15.99;67.08;100567.72;5097458;27;45440;-53
2022/09/24 02:41:51;;;;;;;;;13.67;11.67;;;;;15.93;66.90;100553.84;5085893;27;45529;-53
2022/09/24 02:44:18;;;;;;;;;11.33;10.00;;;;;15.95;67.10;100559.06;5077118;27;45485;-54
2022/09/24 02:46:46;;;;;;;;;12.33;11.67;;;;;15.99;67.11;100557.84;5076943;27;45234;-55
2022/09/24 02:49:13;;;;;;;;;14.67;13.33;;;;;16.01;66.42;100571.13;5075962;27;45730;-53
2022/09/24 02:51:40;;;;;;;;;11.33;11.00;;;;;15.99;66.76;100559.69;5077051;27;45423;-52
2022/09/24 02:54:06;;;;;;;;;22.00;14.67;;;;;15.99;66.94;100568.59;5086008;27;45491;-54
2022/09/24 02:56:32;;;;;;;;;17.33;16.33;;;;;16.01;67.17;100563.94;5097489;27;45401;-53
2022/09/24 02:58:57;;;;;;;;;13.00;11.00;;;;;15.99;67.21;100554.31;5097157;27;45385;-53
2022/09/24 03:01:23;;;;;;;;;16.33;16.33;;;;;16.07;67.28;100562.63;5092128;27;45536;-52
2022/09/24 03:03:49;;;;;;;;;15.00;15.00;;;;;16.06;67.52;100555.56;5076714;27;45393;-54
2022/09/24 03:06:15;;;;;;;;;14.00;12.50;;;;;16.07;68.96;100563.47;5092718;27;45366;-53
2022/09/24 03:08:42;;;;;;;;;20.67;17.00;;;;;15.96;69.00;100551.88;5081873;27;45305;-53
2022/09/24 03:11:10;;;;;;;;;16.67;16.67;;;;;15.96;69.44;100557.25;5097439;27;45234;-51
2022/09/24 03:13:37;;;;;;;;;15.00;15.00;;;;;15.96;68.43;100542.00;5096962;27;46376;-52
2022/09/24 03:16:03;;;;;;;;;16.00;14.67;;;;;15.97;67.47;100540.19;5086959;27;45329;-54
2022/09/24 03:18:29;;;;;;;;;17.33;13.33;;;;;16.05;67.03;100552.03;5076749;27;45338;-53
2022/09/24 03:21:00;;;;;;;;;15.33;13.67;;;;;16.07;67.34;100546.53;5076223;27;45538;-50
2022/09/24 03:23:25;;;;;;;;;19.00;15.33;;;;;16.07;66.09;100543.84;5077470;27;45598;-53
2022/09/24 03:25:51;;;;;;;;;15.00;14.33;;;;;16.04;66.28;100544.94;5096858;27;45360;-52
2022/09/24 03:28:16;;;;;;;;;20.33;14.00;;;;;16.06;66.15;100542.13;5097149;27;45362;-53
2022/09/24 03:31:01;;;;;;;;;15.00;14.00;;;;;16.06;66.64;100542.13;5081437;27;45452;-54
2022/09/24 03:33:37;;;;;;;;;13.67;13.67;;;;;16.06;66.46;100542.13;5092051;27;46309;-52
2022/09/24 03:36:12;;;;;;;;;13.33;13.00;;;;;16.06;66.49;100536.78;5074872;27;45287;-53
2022/09/24 03:38:39;;;;;;;;;20.33;17.00;;;;;16.07;66.22;100543.84;5075977;27;45405;-52
2022/09/24 03:41:06;;;;;;;;;18.00;12.67;;;;;16.08;66.17;100537.50;5086984;27;45533;-54
2022/09/24 03:43:32;;;;;;;;;14.00;13.00;;;;;16.09;66.13;100541.88;5096408;27;46119;-55
2022/09/24 03:45:58;;;;;;;;;14.33;14.33;;;;;16.06;66.09;100534.09;5095864;27;45443;-54
2022/09/24 03:48:23;;;;;;;;;14.33;14.33;;;;;15.93;66.19;100510.94;5096267;27;45345;-54
2022/09/24 03:50:49;;;;;;;;;14.67;11.00;;;;;16.08;66.18;100529.44;5076926;27;45629;-54
2022/09/24 03:53:16;;;;;;;;;16.67;11.67;;;;;16.11;65.88;100534.56;5076052;27;46211;-55
2022/09/24 03:55:43;;;;;;;;;19.67;12.00;;;;;16.13;65.43;100537.97;5076167;27;45804;-52
2022/09/24 03:58:09;;;;;;;;;14.33;12.33;;;;;16.12;65.64;100533.59;5078444;27;45387;-54
2022/09/24 04:00:34;;;;;;;;;15.00;13.33;;;;;16.09;66.24;100532.00;5096572;27;45445;-53
2022/09/24 04:03:00;;;;;;;;;15.67;12.00;;;;;16.03;66.16;100518.25;5096412;27;46433;-51
2022/09/24 04:05:25;;;;;;;;;16.00;13.00;;;;;16.08;65.78;100524.09;5077581;27;45270;-53
2022/09/24 04:07:51;;;;;;;;;11.67;11.33;;;;;16.04;65.90;100522.63;5078844;27;45417;-53
2022/09/24 04:10:16;;;;;;;;;13.00;12.00;;;;;16.07;66.29;100517.88;5079602;27;45185;-53
2022/09/24 04:12:44;;;;;;;;;11.67;11.67;;;;;16.06;66.46;100526.91;5078437;27;47036;-52
2022/09/24 04:15:10;;;;;;;;;12.67;12.67;;;;;16.06;66.26;100524.22;5098478;27;45480;-55
2022/09/24 04:17:35;;;;;;;;;11.67;11.00;;;;;16.07;66.48;100522.38;5100459;27;45748;-52
2022/09/24 04:20:01;;;;;;;;;16.33;13.00;;;;;16.08;66.30;100518.72;5101061;27;45466;-52
2022/09/24 04:22:27;;;;;;;;;13.33;13.33;;;;;16.09;66.30;100520.41;5099993;27;45399;-53
2022/09/24 04:24:56;;;;;;;;;14.33;12.67;;;;;16.07;66.06;100523.22;5100081;27;45963;-55
2022/09/24 04:27:21;;;;;;;;;14.67;14.67;;;;;16.06;66.33;100520.69;5109891;27;45403;-53
2022/09/24 04:29:47;;;;;;;;;9.33;9.33;;;;;16.01;66.14;100517.50;5091654;27;45340;-54
2022/09/24 04:32:12;;;;;;;;;17.00;14.33;;;;;15.97;66.39;100516.88;5081078;27;46139;-52
2022/09/24 04:34:37;;;;;;;;;15.33;13.00;;;;;15.99;65.84;100514.09;5079179;27;45253;-52
2022/09/24 04:37:04;;;;;;;;;12.67;11.33;;;;;16.03;66.03;100520.94;5078995;27;45305;-55
2022/09/24 04:39:30;;;;;;;;;12.00;12.00;;;;;16.01;67.00;100522.84;5079209;27;45619;-53
2022/09/24 04:41:55;;;;;;;;;13.00;12.00;;;;;16.01;66.48;100525.53;5078716;27;45859;-52
2022/09/24 04:44:22;;;;;;;;;13.33;12.67;;;;;15.97;66.08;100519.56;5079304;27;45439;-54
2022/09/24 04:46:47;;;;;;;;;14.00;13.67;;;;;16.04;65.84;100522.63;5074942;27;45339;-52
2022/09/24 04:49:13;;;;;;;;;15.67;12.67;;;;;16.07;66.13;100517.00;5094428;27;45373;-54
2022/09/24 04:51:38;;;;;;;;;12.00;12.00;;;;;16.08;66.63;100519.56;5078420;27;45480;-53
2022/09/24 04:54:04;;;;;;;;;13.33;13.33;;;;;16.05;66.32;100527.03;5080428;27;45285;-51
2022/09/24 04:56:30;;;;;;;;;12.00;10.00;;;;;16.12;66.42;100525.53;5078031;28;45294;-54
2022/09/24 04:58:56;;;;;;;;;12.00;12.00;;;;;16.13;66.09;100522.72;5078773;27;45631;-55
2022/09/24 05:01:22;;;;;;;;;16.00;15.00;;;;;16.15;65.96;100531.53;5074711;27;45842;-54
2022/09/24 05:03:48;;;;;;;;;11.33;11.33;;;;;16.18;66.13;100525.91;5078411;27;45293;-54
2022/09/24 05:06:13;;;;;;;;;9.00;8.67;;;;;16.12;66.85;100528.22;5093207;27;45400;-54
2022/09/24 05:08:39;;;;;;;;;13.33;9.33;;;;;16.08;65.68;100529.44;5078613;27;45611;-54
2022/09/24 05:11:04;;;;;;;;;15.00;13.00;;;;;16.03;66.21;100534.34;5078200;27;45389;-54
2022/09/24 05:13:30;;;;;;;;;14.00;13.00;;;;;15.98;65.84;100517.75;5078358;28;45402;-53
2022/09/24 05:15:55;;;;;;;;;13.00;12.00;;;;;16.08;65.82;100532.97;5075694;27;45343;-53
2022/09/24 05:18:20;;;;;;;;;14.00;12.67;;;;;16.06;65.73;100526.03;5077554;27;45641;-54
2022/09/24 05:20:46;;;;;;;;;14.67;11.67;;;;;16.05;66.02;100530.56;5078591;27;46258;-53
2022/09/24 05:23:11;;;;;;;;;14.00;12.67;;;;;16.04;66.32;100533.38;5094013;27;45366;-54
2022/09/24 05:27:07;;;;;;;;;4.67;3.00;;;;;16.07;66.05;100538.47;5094022;27;45498;-52
2022/09/24 05:28:22;;;;;;;;;13.00;12.00;;;;;16.05;65.72;100543.13;5078832;27;45575;-54
2022/09/24 05:30:47;;;;;;;;;11.33;11.33;;;;;16.03;64.82;100545.06;5077921;27;45456;-55
2022/09/24 05:33:13;;;;;;;;;13.00;13.00;;;;;16.02;65.40;100551.41;5074000;27;45421;-51
2022/09/24 05:35:38;;;;;;;;;13.33;11.00;;;;;15.99;65.30;100546.28;5077868;27;45412;-54
2022/09/24 05:38:03;;;;;;;;;13.67;10.67;;;;;16.02;64.75;100551.41;5078160;27;45308;-52
2022/09/24 05:40:47;;;;;;;;;18.67;12.00;;;;;16.01;64.97;100553.22;5077734;27;45994;-51
2022/09/24 05:43:12;;;;;;;;;11.00;11.00;;;;;16.03;65.19;100555.81;5076901;27;45516;-53
2022/09/24 05:45:38;;;;;;;;;13.00;13.00;;;;;16.05;65.16;100556.53;5078013;27;45454;-53
2022/09/24 05:48:04;;;;;;;;;12.67;12.67;;;;;16.04;65.02;100557.50;5078060;28;45359;-54
2022/09/24 05:50:33;;;;;;;;;13.00;11.00;;;;;15.98;64.95;100541.88;5093624;27;47075;-53
2022/09/24 05:53:00;;;;;;;;;13.00;12.33;;;;;16.04;65.08;100555.69;5097984;27;45587;-54
2022/09/24 05:55:25;;;;;;;;;14.00;10.00;;;;;16.03;64.77;100545.94;5112150;27;45364;-54
2022/09/24 05:57:50;;;;;;;;;14.67;11.00;;;;;16.01;65.06;100553.22;5083359;27;45701;-53
2022/09/24 06:00:15;;;;;;;;;11.00;11.00;;;;;15.99;65.12;100552.50;5089115;27;45915;-53
2022/09/24 06:02:41;;;;;;;;;13.33;12.00;;;;;16.00;65.30;100553.34;5092403;27;45337;-52
2022/09/24 06:05:07;;;;;;;;;12.00;10.33;;;;;15.95;65.12;100548.34;5076270;27;45386;-52
2022/09/24 06:07:32;;;;;;;;;13.33;10.00;;;;;16.01;65.32;100561.25;5076411;27;45388;-53
2022/09/24 06:09:59;;;;;;;;;13.00;12.00;;;;;15.99;65.59;100551.63;5069381;27;45506;-53
2022/09/24 06:12:25;;;;;;;;;11.33;11.00;;;;;16.09;65.38;100563.34;5070786;28;45390;-53
2022/09/24 06:14:52;;;;;;;;;13.00;10.33;;;;;16.09;64.80;100561.50;5077415;27;45302;-52
2022/09/24 06:17:18;;;;;;;;;11.33;11.33;;;;;16.08;64.84;100567.88;5075633;27;45553;-54
2022/09/24 06:19:46;;;;;;;;;14.00;12.33;;;;;16.10;65.38;100559.69;5089700;27;45862;-51
2022/09/24 06:22:12;;;;;;;;;12.67;12.00;;;;;16.05;65.28;100572.63;5070110;28;45504;-54
2022/09/24 06:24:38;;;;;;;;;12.00;11.00;;;;;16.00;65.21;100564.06;5057036;28;45449;-53
2022/09/24 06:27:03;;;;;;;;;11.33;11.33;;;;;16.05;65.44;100575.31;5072178;27;46715;-52
2022/09/24 06:29:29;;;;;;;;;14.00;14.00;;;;;16.01;65.37;100571.13;5073564;27;45358;-54
2022/09/24 06:31:54;;;;;;;;;13.67;11.00;;;;;16.07;64.98;100573.34;5075278;27;45279;-55
2022/09/24 06:34:20;;;;;;;;;13.67;12.00;;;;;16.05;65.32;100578.00;5076325;27;45409;-54
2022/09/24 06:36:45;;;;;;;;;13.00;12.00;;;;;16.09;65.62;100582.13;5073513;28;45528;-54
2022/09/24 06:39:10;;;;;;;;;11.67;11.00;;;;;16.05;65.60;100578.00;5069919;27;47034;-54
2022/09/24 06:41:36;;;;;;;;;14.67;12.33;;;;;16.12;65.29;100589.94;5074567;28;45436;-55
2022/09/24 06:44:01;;;;;;;;;13.67;12.00;;;;;16.14;65.80;100593.34;5074642;28;46031;-53
2022/09/24 06:46:27;;;;;;;;;9.67;9.67;;;;;16.14;65.21;100588.81;5090595;27;45498;-53
2022/09/24 06:48:55;;;;;;;;;11.00;11.00;;;;;16.14;65.16;100587.97;5066532;27;45981;-52
2022/09/24 06:51:21;;;;;;;;;9.33;9.33;;;;;16.11;64.63;100580.16;5076125;27;46080;-55
2022/09/24 06:53:50;;;;;;;;;13.33;10.33;;;;;16.16;64.34;100583.38;5056511;28;45353;-53
2022/09/24 06:56:17;;;;;;;;;12.00;11.00;;;;;16.18;64.47;100592.13;5069113;28;45472;-55
2022/09/24 06:58:42;;;;;;;;;15.67;11.33;;;;;16.19;65.31;100583.97;5071450;27;46221;-54
2022/09/24 07:01:10;;;;;;;;;11.67;11.67;;;;;16.27;64.99;100602.13;5073581;28;45176;-54
2022/09/24 07:03:37;;;;;;;;;14.00;13.00;;;;;16.26;65.56;100597.72;5073757;27;45495;-53
2022/09/24 07:06:04;;;;;;;;;12.00;12.00;;;;;16.27;65.38;100595.91;5074565;27;45619;-52
2022/09/24 07:08:30;;;;;;;;;14.00;12.67;;;;;16.28;65.47;100605.69;5076042;27;46082;-53
2022/09/24 07:10:56;;;;;;;;;12.00;12.00;;;;;16.31;65.41;100590.19;5076711;27;45353;-56
2022/09/24 07:13:22;;;;;;;;;14.00;13.00;;;;;16.29;66.08;100602.88;5067989;27;45488;-54
2022/09/24 07:15:49;;;;;;;;;15.33;14.00;;;;;16.29;66.01;100597.50;5072809;28;45495;-54
2022/09/24 07:18:15;;;;;;;;;12.00;12.00;;;;;16.32;66.42;100602.63;5074335;27;47259;-54
2022/09/24 07:20:40;;;;;;;;;16.33;14.67;;;;;16.32;66.46;100605.31;5075113;27;45434;-54
2022/09/24 07:23:08;;;;;;;;;15.00;12.33;;;;;16.25;66.74;100596.03;5076528;28;45328;-54
2022/09/24 07:25:35;;;;;;;;;14.33;13.67;;;;;16.26;66.84;100587.00;5083779;27;45446;-54
2022/09/24 07:28:09;;;;;;;;;15.00;14.00;;;;;16.31;66.98;100608.13;5075726;28;45225;-54
2022/09/24 07:30:35;;;;;;;;;16.00;14.67;;;;;16.31;66.69;100611.66;5068412;27;45516;-54
2022/09/24 07:33:01;;;;;;;;;15.00;14.00;;;;;16.29;67.00;100616.28;5095297;27;45244;-53
2022/09/24 07:35:27;;;;;;;;;16.67;12.67;;;;;16.27;67.16;100612.00;5074507;27;45202;-54
2022/09/24 07:38:02;;;;;;;;;14.33;11.67;;;;;16.27;67.06;100615.53;5076011;27;46317;-59
2022/09/24 07:40:28;;;;;;;;;12.67;12.33;;;;;16.25;67.18;100613.97;5075583;28;45329;-55
2022/09/24 07:42:54;;;;;;;;;16.00;13.67;;;;;16.24;67.10;100615.78;5080100;27;45317;-55
2022/09/24 07:45:24;;;;;;;;;14.33;14.00;;;;;16.30;66.79;100615.31;5078670;27;45496;-54
2022/09/24 07:47:58;;;;;;;;;12.67;11.33;;;;;16.36;66.72;100616.66;5095415;27;46349;-52
2022/09/24 07:50:25;;;;;;;;;19.33;15.67;;;;;16.40;67.44;100627.00;5097335;27;45415;-54
2022/09/24 07:52:52;;;;;;;;;14.50;13.00;;;;;16.46;67.13;100626.53;5104599;27;45212;-56
2022/09/24 07:55:17;;;;;;;;;14.00;12.00;;;;;16.49;66.78;100628.97;5080299;28;45594;-58
2022/09/24 07:57:50;;;;;;;;;12.67;11.67;;;;;16.47;65.64;100628.25;5076233;27;46455;-53
2022/09/24 08:00:17;;;;;;;;;12.00;12.00;;;;;16.52;65.82;100631.41;5075627;28;45320;-56
2022/09/24 08:02:44;;;;;;;;;11.00;10.00;;;;;16.53;65.49;100633.09;5079010;27;45440;-56
2022/09/24 08:05:11;;;;;;;;;9.67;9.67;;;;;16.47;65.34;100625.56;5100414;27;45505;-57
2022/09/24 08:07:36;;;;;;;;;16.00;15.33;;;;;16.52;65.65;100631.41;5084015;27;46621;-54
2022/09/24 08:10:02;;;;;;;;;15.33;13.67;;;;;16.57;66.03;100639.09;5079871;27;45424;-56
2022/09/24 08:12:27;;;;;;;;;12.00;12.00;;;;;16.55;66.66;100635.69;5079253;27;45374;-56
2022/09/24 08:14:53;;;;;;;;;19.67;15.00;;;;;16.63;66.81;100633.22;5077461;27;45380;-55
2022/09/24 08:17:19;;;;;;;;;16.00;12.67;;;;;16.63;65.78;100637.75;5077084;28;45488;-57
2022/09/24 08:19:45;;;;;;;;;13.00;11.33;;;;;16.68;65.76;100643.66;5075306;27;46846;-57
2022/09/24 08:22:14;;;;;;;;;14.67;13.00;;;;;16.70;65.55;100644.38;5075882;28;45323;-57
2022/09/24 08:24:40;;;;;;;;;14.33;14.33;;;;;16.62;65.46;100636.03;5095019;27;45471;-57
2022/09/24 08:27:07;;;;;;;;;13.00;13.00;;;;;16.55;66.34;100638.38;5078920;27;46257;-48
2022/09/24 08:29:33;;;;;;;;;12.33;12.33;;;;;16.48;66.96;100637.16;5094117;27;45376;-51
2022/09/24 08:31:59;;;;;;;;;15.33;11.67;;;;;16.48;66.83;100638.00;5079772;27;45500;-53
2022/09/24 08:34:24;;;;;;;;;12.00;12.00;;;;;16.42;67.18;100643.88;5079034;27;45719;-52
2022/09/24 08:36:50;;;;;;;;;11.00;10.67;;;;;16.44;66.66;100641.91;5094286;27;47417;-49
2022/09/24 08:39:15;;;;;;;;;15.67;12.00;;;;;16.50;66.45;100651.28;5089704;27;45318;-51
2022/09/24 08:41:54;;;;;;;;;10.00;10.00;;;;;16.46;66.53;100648.00;5115019;27;45325;-48
2022/09/24 08:47:47;;;;;;;;;13.00;11.67;;;;;16.44;67.08;100659.84;5093019;27;45845;-54
2022/09/24 08:50:26;;;;;;;;;16.00;13.00;;;;;16.53;67.27;100653.72;5077592;27;45563;-56
2022/09/24 08:53:45;;;;;;;;;11.67;10.00;;;;;16.53;67.00;100654.56;5079438;27;45216;-53
2022/09/24 08:56:11;;;;;;;;;13.67;12.00;;;;;16.58;66.96;100658.75;5005864;28;45500;-56
2022/09/24 08:58:50;;;;;;;;;16.00;11.67;;;;;16.58;67.93;100661.44;5021500;28;45472;-51
2022/09/24 09:01:37;;;;;;;;;17.33;16.33;;;;;16.55;67.67;100656.31;5047827;28;45508;-54
2022/09/24 09:04:11;;;;;;;;;15.33;14.33;;;;;16.61;67.48;100661.19;5074361;27;45244;-54
2022/09/24 09:06:47;;;;;;;;;21.33;16.00;;;;;16.64;67.93;100666.28;5069944;27;46614;-51
2022/09/24 09:09:22;;;;;;;;;19.33;19.33;;;;;16.70;67.90;100673.91;5097452;27;45336;-56
2022/09/24 09:11:51;;;;;;;;;20.67;18.00;;;;;16.68;67.95;100657.94;5076148;27;45180;-53
2022/09/24 09:14:24;;;;;;;;;22.00;20.00;;;;;16.74;67.70;100673.53;5085102;27;45488;-53
2022/09/24 09:17:23;;;;;;;;;19.00;17.00;;;;;16.76;68.11;100670.72;5078040;27;45438;-54
2022/09/24 09:19:54;;;;;;;;;21.33;21.33;;;;;16.79;67.40;100665.94;5075668;27;46423;-57
2022/09/24 09:22:26;;;;;;;;;17.00;15.00;;;;;16.80;67.54;100666.81;5085959;27;45466;-56
2022/09/24 09:24:54;;;;;;;;;19.00;18.33;;;;;16.81;67.49;100657.78;5098951;27;45270;-55
2022/09/24 09:27:20;;;;;;;;;18.67;16.67;;;;;16.74;66.49;100667.31;5098897;27;45326;-53
2022/09/24 09:29:54;;;;;;;;;25.00;19.67;;;;;16.77;66.71;100662.53;5114452;27;47665;-56
2022/09/24 09:32:37;;;;;;;;;15.33;15.33;;;;;16.82;66.37;100658.66;5098580;27;45513;-55
2022/09/24 09:35:22;;;;;;;;;24.00;19.33;;;;;16.91;66.44;100668.63;5114141;27;45254;-56
2022/09/24 09:37:48;;;;;;;;;19.00;17.00;;;;;16.91;65.51;100668.63;5097949;27;45333;-54
2022/09/24 09:40:52;;;;;;;;;18.00;16.67;;;;;16.92;66.20;100665.81;5098278;27;45237;-55
2022/09/24 09:43:18;;;;;;;;;19.33;18.67;;;;;16.98;66.10;100664.47;5097246;27;45309;-54
2022/09/24 09:46:21;;;;;;;;;23.67;20.67;;;;;16.97;65.82;100669.00;5093995;27;45226;-55
2022/09/24 09:48:55;;;;;;;;;21.33;19.00;;;;;17.04;65.99;100663.94;5067666;27;45787;-57
2022/09/24 09:51:24;;;;;;;;;19.67;18.00;;;;;17.10;65.97;100668.84;5075123;27;45366;-57
2022/09/24 09:54:08;;;;;;;;;18.67;17.00;;;;;17.07;64.68;100664.56;5102874;27;45495;-58
2022/09/24 09:56:43;;;;;;;;;22.33;17.00;;;;;17.11;65.27;100657.09;5092213;27;45404;-60
2022/09/24 09:59:12;;;;;;;;;20.00;17.00;;;;;17.28;64.88;100666.47;5077005;28;45504;-59
2022/09/24 10:01:40;;;;;;;;;21.33;18.33;;;;;17.28;63.67;100653.00;5076336;27;46027;-55
2022/09/24 10:04:35;;;;;;;;;18.67;16.33;;;;;17.49;62.81;100666.53;5074129;27;45363;-60
2022/09/24 10:07:15;;;;;;;;;18.33;17.33;;;;;17.52;62.85;100660.88;5074903;27;45559;-57
2022/09/24 10:09:42;;;;;;;;;18.67;17.00;;;;;17.62;62.89;100659.97;5084840;27;45539;-61
2022/09/24 10:12:14;;;;;;;;;20.67;20.67;;;;;17.76;62.82;100666.91;5090571;27;47020;-58
2022/09/24 10:14:41;;;;;;;;;21.67;19.67;;;;;17.89;62.68;100667.56;5073898;28;45500;-56
2022/09/24 10:17:13;;;;;;;;;22.67;19.67;;;;;17.99;61.49;100662.25;5076458;27;45389;-56
2022/09/24 10:19:42;;;;;;;;;18.67;18.67;;;;;18.04;61.81;100653.78;5093145;27;45396;-58
2022/09/24 10:22:22;;;;;;;;;25.67;19.33;;;;;18.13;61.53;100670.00;5075494;27;45590;-57
2022/09/24 10:24:49;;;;;;;;;21.00;20.33;;;;;18.18;61.91;100662.38;5074886;27;47978;-57
2022/09/24 10:27:26;;;;;;;;;19.00;17.67;;;;;18.30;61.26;100660.44;5097758;27;45383;-58
2022/09/24 10:32:40;;;;;;;;;22.67;19.33;;;;;18.48;60.82;100656.13;5077738;27;45693;-56
2022/09/24 10:35:25;;;;;;;;;18.00;15.67;;;;;18.58;60.48;100658.88;5075717;27;45452;-54
2022/09/24 10:37:54;;;;;;;;;19.00;19.00;;;;;18.69;59.82;100661.50;5081208;27;45424;-54
2022/09/24 10:40:24;;;;;;;;;20.00;20.00;;;;;18.73;59.80;100660.22;5096188;27;45319;-52
2022/09/24 10:42:57;;;;;;;;;22.67;20.67;;;;;18.76;59.48;100651.91;5097403;27;46169;-52
2022/09/24 10:45:36;;;;;;;;;22.67;18.67;;;;;18.83;59.15;100658.44;5080980;27;45402;-50
2022/09/24 10:48:07;;;;;;;;;20.00;20.00;;;;;18.86;59.30;100652.75;5077004;27;45478;-54
2022/09/24 10:50:45;;;;;;;;;23.33;23.00;;;;;18.85;59.59;100653.75;5077588;27;45342;-54
2022/09/24 10:53:38;;;;;;;;;26.67;21.00;;;;;18.79;58.73;100657.00;5076943;27;46196;-54
2022/09/24 10:56:18;;;;;;;;;21.00;21.00;;;;;18.72;58.68;100646.91;5075483;28;45383;-52
2022/09/24 10:58:56;;;;;;;;;19.00;19.00;;;;;18.79;58.69;100646.22;5082214;27;45381;-55
2022/09/24 11:01:34;;;;;;;;;17.67;16.33;;;;;18.83;58.64;100652.19;5077017;28;45403;-54
2022/09/24 11:04:24;;;;;;;;;22.00;22.00;;;;;18.84;58.47;100652.03;5076645;27;45774;-53
2022/09/24 11:07:19;;;;;;;;;23.33;21.67;;;;;18.83;58.88;100655.72;5076751;27;45309;-52
2022/09/24 11:10:08;;;;;;;;;23.00;21.00;;;;;18.77;58.41;100650.91;5076227;27;45571;-53
2022/09/24 11:13:09;;;;;;;;;24.33;23.00;;;;;18.82;58.62;100655.88;5092754;27;45524;-60
2022/09/24 11:16:09;;;;;;;;;24.33;21.00;;;;;18.84;57.93;100657.44;5070489;27;45235;-54
2022/09/24 11:19:00;;;;;;;;;24.67;21.00;;;;;18.80;58.13;100661.41;5073247;27;45775;-56
2022/09/24 11:21:46;;;;;;;;;27.00;23.67;;;;;18.85;57.87;100656.44;5076497;27;45421;-55
2022/09/24 11:24:21;;;;;;;;;28.67;23.33;;;;;18.90;57.99;100660.59;5075798;28;45488;-56
2022/09/24 11:27:19;;;;;;;;;34.00;32.00;;;;;18.86;57.47;100658.16;5076666;27;46374;-56
2022/09/24 11:29:47;;;;;;;;;26.67;25.33;;;;;18.91;57.17;100654.22;5076970;27;45674;-55
2022/09/24 11:32:37;;;;;;;;;23.67;22.00;;;;;18.93;57.49;100636.06;5076107;27;45445;-57